Time;durP1;ratioP1;P1;durP2;ratioP2;P2;SDS_P1;SDS_P2;PMS_P1;PMS_P2;Temp;Humidity;BMP_temperature;BMP_pressure;BME280_temperature;BME280_humidity;BME280_pressure;Samples;Min_cycle;Max_cycle;Signal;HPM_P1;HPM_P2
2024/01/05 00:00:47;;;;;;;17.20;4.45;;;10.10;99.90;;;;;;5044757;28;20067;-72
2024/01/05 00:03:13;;;;;;;19.13;4.32;;;10.20;99.90;;;;;;5041738;28;20026;-72
2024/01/05 00:05:39;;;;;;;17.55;4.00;;;10.10;99.90;;;;;;5036059;28;20083;-72
2024/01/05 00:08:05;;;;;;;22.58;4.63;;;10.10;99.90;;;;;;5041530;28;20381;-72
2024/01/05 00:10:31;;;;;;;23.52;5.03;;;10.10;99.90;;;;;;5040074;28;20077;-72
2024/01/05 00:12:57;;;;;;;24.30;4.50;;;10.20;99.90;;;;;;5038780;28;20103;-72
2024/01/05 00:15:23;;;;;;;24.38;4.93;;;10.10;99.90;;;;;;5040710;28;20100;-72
2024/01/05 00:17:48;;;;;;;21.65;5.15;;;10.10;99.90;;;;;;5047698;28;20491;-72
2024/01/05 00:20:14;;;;;;;20.13;4.70;;;10.20;99.90;;;;;;5042001;28;20022;-72
2024/01/05 00:22:40;;;;;;;23.45;4.85;;;10.10;99.90;;;;;;5039923;28;20030;-71
2024/01/05 00:25:06;;;;;;;25.02;5.03;;;10.00;99.90;;;;;;5043004;28;20374;-72
2024/01/05 00:27:32;;;;;;;23.30;4.13;;;10.00;99.90;;;;;;5039545;28;20024;-72
2024/01/05 00:29:58;;;;;;;20.45;4.35;;;10.00;99.90;;;;;;5037126;28;20100;-72
2024/01/05 00:32:24;;;;;;;26.85;5.38;;;10.10;99.90;;;;;;5050575;28;20434;-72
2024/01/05 00:34:49;;;;;;;23.65;5.28;;;10.10;99.90;;;;;;5046383;28;20029;-72
2024/01/05 00:37:15;;;;;;;16.92;4.40;;;10.20;99.90;;;;;;5039216;28;20036;-72
2024/01/05 00:39:41;;;;;;;22.38;4.43;;;10.20;99.90;;;;;;5040116;28;20026;-72
2024/01/05 00:42:07;;;;;;;26.40;4.68;;;10.10;99.90;;;;;;5041403;28;20391;-72
2024/01/05 00:44:33;;;;;;;28.35;4.45;;;10.20;99.90;;;;;;5043297;28;20116;-72
2024/01/05 00:46:58;;;;;;;16.55;4.32;;;10.20;99.90;;;;;;5039931;28;20025;-72
2024/01/05 00:49:24;;;;;;;28.70;5.38;;;10.30;99.90;;;;;;5043575;28;20021;-72
2024/01/05 00:51:50;;;;;;;21.25;5.28;;;10.30;99.90;;;;;;5047091;28;20049;-72
2024/01/05 00:54:15;;;;;;;20.55;4.97;;;10.30;99.90;;;;;;5049994;28;20123;-72
2024/01/05 00:56:41;;;;;;;22.45;4.70;;;10.20;99.90;;;;;;5048088;28;20036;-72
2024/01/05 00:59:07;;;;;;;22.85;4.70;;;10.10;99.90;;;;;;5047389;28;20446;-72
2024/01/05 01:01:33;;;;;;;23.02;5.32;;;10.10;99.90;;;;;;5049115;28;20048;-72
2024/01/05 01:03:59;;;;;;;20.45;4.35;;;10.10;99.90;;;;;;5044255;28;20030;-72
2024/01/05 01:06:24;;;;;;;27.40;5.53;;;10.10;99.90;;;;;;5043836;28;20025;-72
2024/01/05 01:08:50;;;;;;;27.60;5.03;;;10.00;99.90;;;;;;5045791;28;20409;-72
2024/01/05 01:11:17;;;;;;;16.63;4.35;;;10.00;99.90;;;;;;5045540;28;20032;-72
2024/01/05 01:13:43;;;;;;;20.67;4.65;;;9.90;99.90;;;;;;5046659;28;20074;-72
2024/01/05 01:16:11;;;;;;;15.45;4.00;;;10.00;99.90;;;;;;5050475;28;20024;-72
2024/01/05 01:18:37;;;;;;;12.68;3.47;;;9.90;99.90;;;;;;5050144;28;20470;-72
2024/01/05 01:21:03;;;;;;;14.27;3.65;;;9.90;99.90;;;;;;5044413;28;20037;-72
2024/01/05 01:23:29;;;;;;;18.60;4.05;;;10.00;99.90;;;;;;5045268;28;20041;-72
2024/01/05 01:25:54;;;;;;;22.10;4.50;;;9.90;99.90;;;;;;5046162;28;20525;-72
2024/01/05 01:28:20;;;;;;;21.25;3.63;;;9.90;99.90;;;;;;5046760;28;20037;-72
2024/01/05 01:30:46;;;;;;;16.05;4.30;;;9.80;99.90;;;;;;5044033;28;20466;-71
2024/01/05 01:33:11;;;;;;;13.23;3.45;;;9.80;99.90;;;;;;5044296;28;20039;-72
2024/01/05 01:35:37;;;;;;;29.75;4.78;;;9.80;99.90;;;;;;5042170;28;20374;-71
2024/01/05 01:38:03;;;;;;;22.67;4.22;;;9.80;99.90;;;;;;5044424;28;20032;-72
2024/01/05 01:40:29;;;;;;;11.30;3.53;;;9.80;99.90;;;;;;5041969;28;20496;-72
2024/01/05 01:42:55;;;;;;;14.77;4.00;;;9.80;99.90;;;;;;5045317;28;20013;-72
2024/01/05 01:45:21;;;;;;;14.23;4.03;;;9.80;99.90;;;;;;5045792;28;20394;-72
2024/01/05 01:47:47;;;;;;;16.40;3.85;;;9.80;99.90;;;;;;5043074;28;20017;-72
2024/01/05 01:50:14;;;;;;;13.88;3.53;;;9.90;99.90;;;;;;5046769;28;20041;-72
2024/01/05 01:52:42;;;;;;;12.27;3.30;;;9.90;99.90;;;;;;5051784;28;20025;-72
2024/01/05 01:55:09;;;;;;;16.20;3.20;;;9.90;99.90;;;;;;5047900;28;20025;-72
2024/01/05 01:57:37;;;;;;;22.30;4.10;;;9.80;99.90;;;;;;5042679;28;20398;-72
2024/01/05 02:00:03;;;;;;;12.85;3.38;;;9.90;99.90;;;;;;5048494;28;20027;-72
2024/01/05 02:02:30;;;;;;;11.60;3.42;;;9.90;99.90;;;;;;5040223;28;20021;-72
2024/01/05 02:04:56;;;;;;;9.60;3.25;;;9.90;99.90;;;;;;5047334;28;20025;-72
2024/01/05 02:07:22;;;;;;;11.45;3.20;;;9.90;99.90;;;;;;5045219;28;20104;-72
2024/01/05 02:09:49;;;;;;;14.68;2.58;;;9.80;99.90;;;;;;5030848;28;20527;-72
2024/01/05 02:12:14;;;;;;;11.60;2.83;;;9.70;99.90;;;;;;5010961;28;20073;-72
2024/01/05 02:14:40;;;;;;;10.10;2.70;;;9.70;99.90;;;;;;5036642;28;20060;-72
2024/01/05 02:17:26;;;;;;;9.15;2.60;;;9.70;99.90;;;;;;5041388;28;20028;-72
2024/01/05 02:19:52;;;;;;;10.70;2.78;;;9.70;99.90;;;;;;5038313;28;20191;-72
2024/01/05 02:22:19;;;;;;;12.63;3.22;;;9.70;99.90;;;;;;5032923;28;20554;-72
2024/01/05 02:24:45;;;;;;;13.35;2.40;;;9.80;99.90;;;;;;5037374;28;20075;-71
2024/01/05 02:27:11;;;;;;;10.77;2.70;;;9.80;99.90;;;;;;5037875;28;20032;-72
2024/01/05 02:29:37;;;;;;;7.32;2.65;;;9.70;99.90;;;;;;5033807;28;20033;-72
2024/01/05 02:32:02;;;;;;;9.05;2.95;;;9.70;99.90;;;;;;5034769;28;20458;-72
2024/01/05 02:34:28;;;;;;;12.15;3.38;;;9.70;99.90;;;;;;5036071;28;20034;-71
2024/01/05 02:36:54;;;;;;;12.70;3.47;;;9.70;99.90;;;;;;5037455;28;20531;-72
2024/01/05 02:39:19;;;;;;;13.13;2.60;;;9.70;99.90;;;;;;5032510;28;20275;-72
2024/01/05 02:41:45;;;;;;;7.50;2.08;;;9.60;99.90;;;;;;5035207;28;20449;-72
2024/01/05 02:44:10;;;;;;;12.45;5.13;;;9.50;99.90;;;;;;5036779;28;21572;-72
2024/01/05 02:46:37;;;;;;;10.80;2.55;;;9.60;99.90;;;;;;5032088;28;20041;-71
2024/01/05 02:49:03;;;;;;;29.63;26.80;;;9.60;99.90;;;;;;5034604;28;20021;-72
2024/01/05 02:51:29;;;;;;;12.55;2.70;;;9.60;99.90;;;;;;5036961;28;20040;-71
2024/01/05 02:53:55;;;;;;;10.27;1.75;;;9.60;99.90;;;;;;5039615;28;20028;-72
2024/01/05 02:56:22;;;;;;;12.95;2.97;;;9.60;99.90;;;;;;5037992;28;20485;-72
2024/01/05 02:58:52;;;;;;;10.35;2.15;;;9.70;99.90;;;;;;5037814;28;20021;-72
2024/01/05 03:01:18;;;;;;;16.45;2.83;;;9.60;99.90;;;;;;5034872;28;20029;-72
2024/01/05 03:03:48;;;;;;;10.93;2.15;;;9.60;99.90;;;;;;5038118;28;20092;-72
2024/01/05 03:06:18;;;;;;;10.15;2.35;;;9.60;99.90;;;;;;5036723;28;20021;-72
2024/01/05 03:08:44;;;;;;;12.20;2.10;;;9.60;99.90;;;;;;5034854;28;20172;-72
2024/01/05 03:11:10;;;;;;;6.85;1.88;;;9.60;99.90;;;;;;5038923;28;20660;-72
2024/01/05 03:13:36;;;;;;;11.68;2.17;;;9.50;99.90;;;;;;5039505;28;20021;-72
2024/01/05 03:16:03;;;;;;;9.35;1.90;;;9.60;99.90;;;;;;5034116;28;20488;-72
2024/01/05 03:18:28;;;;;;;7.30;1.50;;;9.60;99.90;;;;;;5031969;28;20561;-71
2024/01/05 03:20:54;;;;;;;10.13;2.50;;;9.60;99.90;;;;;;5036241;28;20036;-72
2024/01/05 03:23:20;;;;;;;7.55;1.67;;;9.50;99.90;;;;;;5036163;28;20029;-72
2024/01/05 03:25:45;;;;;;;12.30;2.50;;;9.50;99.90;;;;;;5037129;28;20523;-72
2024/01/05 03:28:12;;;;;;;6.82;1.88;;;9.60;99.90;;;;;;5033000;28;20627;-72
2024/01/05 03:30:39;;;;;;;9.52;2.72;;;9.40;99.90;;;;;;5037765;28;20017;-72
2024/01/05 03:33:05;;;;;;;6.18;2.30;;;9.40;99.90;;;;;;5035889;28;20041;-72
2024/01/05 03:35:31;;;;;;;7.53;1.73;;;9.40;99.90;;;;;;5037724;28;20029;-72
2024/01/05 03:37:57;;;;;;;8.43;1.83;;;9.30;99.90;;;;;;5036195;28;20394;-72
2024/01/05 03:40:23;;;;;;;9.20;1.80;;;9.30;99.90;;;;;;5039124;28;20017;-72
2024/01/05 03:42:48;;;;;;;10.23;1.80;;;9.40;99.90;;;;;;5039941;28;21055;-71
2024/01/05 03:45:14;;;;;;;10.73;2.05;;;9.30;99.90;;;;;;5030274;28;20021;-72
2024/01/05 03:47:40;;;;;;;3.83;1.48;;;9.30;99.90;;;;;;5038664;28;20033;-72
2024/01/05 03:50:07;;;;;;;8.38;2.00;;;9.30;99.90;;;;;;5034506;28;20027;-72
2024/01/05 03:52:32;;;;;;;6.65;1.88;;;9.30;99.90;;;;;;5035824;28;20065;-72
2024/01/05 03:54:58;;;;;;;10.45;1.80;;;9.30;99.90;;;;;;5049024;28;20063;-72
2024/01/05 03:57:24;;;;;;;6.47;1.65;;;9.30;99.90;;;;;;5043797;28;20502;-72
2024/01/05 03:59:53;;;;;;;5.93;2.63;;;9.30;99.90;;;;;;5046183;28;20043;-72
2024/01/05 04:02:18;;;;;;;7.90;1.80;;;9.20;99.90;;;;;;5041845;28;20388;-72
2024/01/05 04:04:44;;;;;;;6.03;1.52;;;9.30;99.90;;;;;;5044390;28;20125;-72
2024/01/05 04:07:10;;;;;;;12.00;2.25;;;9.30;99.90;;;;;;5039203;28;20032;-72
2024/01/05 04:09:36;;;;;;;9.07;2.13;;;9.20;99.90;;;;;;5042000;28;20034;-72
2024/01/05 04:12:02;;;;;;;6.75;2.20;;;9.20;99.90;;;;;;5040340;28;20037;-72
2024/01/05 04:14:28;;;;;;;13.80;2.00;;;9.20;99.90;;;;;;5043570;28;20029;-72
2024/01/05 04:16:54;;;;;;;7.40;1.92;;;9.20;99.90;;;;;;5042248;28;20478;-72
2024/01/05 04:19:20;;;;;;;13.13;1.38;;;9.20;99.90;;;;;;5042556;28;20057;-72
2024/01/05 04:21:46;;;;;;;5.80;1.55;;;9.20;99.90;;;;;;5049892;28;20386;-72
2024/01/05 04:24:11;;;;;;;6.25;2.05;;;9.30;99.90;;;;;;5051981;28;20017;-72
2024/01/05 04:26:37;;;;;;;6.95;1.70;;;9.30;99.90;;;;;;5044012;28;20394;-72
2024/01/05 04:29:03;;;;;;;8.10;2.30;;;9.30;99.90;;;;;;5043313;28;20025;-72
2024/01/05 04:31:29;;;;;;;8.20;2.00;;;9.40;99.90;;;;;;5050321;28;20647;-72
2024/01/05 04:33:55;;;;;;;5.03;1.80;;;9.40;99.90;;;;;;5048629;28;20028;-72
2024/01/05 04:36:21;;;;;;;7.53;2.25;;;9.30;99.90;;;;;;5045960;28;20075;-72
2024/01/05 04:38:47;;;;;;;8.52;2.00;;;9.30;99.90;;;;;;5047899;28;20037;-72
2024/01/05 04:41:14;;;;;;;6.30;1.55;;;9.30;99.90;;;;;;5045849;28;20028;-72
2024/01/05 04:43:40;;;;;;;7.10;1.48;;;9.40;99.90;;;;;;5050700;28;20181;-72
2024/01/05 04:46:07;;;;;;;6.70;1.67;;;9.30;99.90;;;;;;5046997;28;20017;-71
2024/01/05 04:48:33;;;;;;;7.32;1.48;;;9.40;99.90;;;;;;5049356;28;20634;-72
2024/01/05 04:51:00;;;;;;;6.78;1.45;;;9.40;99.90;;;;;;5049301;28;20021;-72
2024/01/05 04:53:26;;;;;;;6.72;1.35;;;9.40;99.90;;;;;;5049116;28;20081;-72
2024/01/05 04:55:52;;;;;;;5.93;1.40;;;9.50;99.90;;;;;;5046867;28;20025;-72
2024/01/05 04:58:17;;;;;;;6.47;1.63;;;9.50;99.90;;;;;;5046248;28;20535;-72
2024/01/05 05:00:43;;;;;;;8.55;1.95;;;9.60;99.90;;;;;;5047267;28;20041;-72
2024/01/05 05:03:10;;;;;;;7.90;1.40;;;9.50;99.90;;;;;;5044480;28;20025;-72
2024/01/05 05:05:36;;;;;;;7.68;1.60;;;9.60;99.90;;;;;;5046272;28;20084;-72
2024/01/05 05:08:03;;;;;;;8.45;1.83;;;9.60;99.90;;;;;;5048315;28;20025;-71
2024/01/05 05:10:28;;;;;;;6.18;1.65;;;9.60;99.90;;;;;;5040043;28;20090;-72
2024/01/05 05:12:54;;;;;;;5.43;1.40;;;9.50;99.90;;;;;;5045068;28;20041;-72
2024/01/05 05:15:20;;;;;;;6.22;1.33;;;9.60;99.90;;;;;;5045765;28;20449;-72
2024/01/05 05:17:45;;;;;;;8.23;1.40;;;9.70;99.90;;;;;;5040973;28;20033;-72
2024/01/05 05:20:12;;;;;;;8.63;2.20;;;9.70;99.90;;;;;;5047082;28;20040;-71
2024/01/05 05:22:38;;;;;;;9.73;1.55;;;9.60;99.90;;;;;;5042936;28;20024;-71
2024/01/05 05:25:05;;;;;;;6.95;1.40;;;9.70;99.90;;;;;;5045140;28;20025;-72
2024/01/05 05:27:31;;;;;;;4.75;1.60;;;9.70;99.90;;;;;;5047066;28;20036;-72
2024/01/05 05:29:57;;;;;;;5.30;1.23;;;9.70;99.90;;;;;;5047288;28;20021;-72
2024/01/05 05:32:23;;;;;;;5.38;1.30;;;9.70;99.90;;;;;;5046594;28;20087;-71
2024/01/05 05:34:50;;;;;;;5.40;1.30;;;9.70;99.90;;;;;;5047124;28;20045;-71
2024/01/05 05:37:16;;;;;;;5.90;1.30;;;9.70;99.90;;;;;;5045733;28;20028;-71
2024/01/05 05:39:41;;;;;;;6.18;0.90;;;9.70;99.90;;;;;;5048452;28;20037;-71
2024/01/05 05:42:07;;;;;;;4.45;1.27;;;9.70;99.90;;;;;;5049050;28;20108;-71
2024/01/05 05:44:34;;;;;;;5.30;1.17;;;9.70;99.90;;;;;;5041195;28;20508;-72
2024/01/05 05:47:00;;;;;;;6.55;1.40;;;9.70;99.90;;;;;;5050276;28;20017;-71
2024/01/05 05:49:25;;;;;;;5.38;1.25;;;9.70;99.90;;;;;;5043893;28;20442;-72
2024/01/05 05:51:51;;;;;;;4.05;1.00;;;9.80;99.90;;;;;;5038904;28;20127;-72
2024/01/05 05:54:17;;;;;;;6.82;1.60;;;9.80;99.90;;;;;;5043383;28;20025;-71
2024/01/05 05:56:43;;;;;;;7.72;1.33;;;9.80;99.90;;;;;;5048975;28;20025;-71
2024/01/05 05:59:08;;;;;;;6.10;1.20;;;9.80;99.90;;;;;;5039429;28;20139;-71
2024/01/05 06:01:35;;;;;;;5.65;0.95;;;9.90;99.90;;;;;;5042323;28;20359;-71
2024/01/05 06:04:01;;;;;;;4.93;1.17;;;9.90;99.90;;;;;;5040981;28;20040;-71
2024/01/05 06:06:27;;;;;;;3.15;1.00;;;9.80;99.90;;;;;;5043969;28;20449;-72
2024/01/05 06:08:53;;;;;;;2.20;0.70;;;9.90;99.90;;;;;;5046138;28;20024;-72
2024/01/05 06:11:19;;;;;;;4.30;0.73;;;9.70;99.90;;;;;;5047125;28;20013;-72
2024/01/05 06:13:45;;;;;;;1.80;0.50;;;9.70;99.90;;;;;;5040041;28;20029;-71
2024/01/05 06:16:11;;;;;;;2.35;1.00;;;9.70;99.90;;;;;;5024829;28;20053;-71
2024/01/05 06:18:38;;;;;;;1.50;0.40;;;9.70;99.90;;;;;;5024641;28;20016;-73
2024/01/05 06:21:04;;;;;;;1.02;0.60;;;9.80;99.90;;;;;;5018456;28;20039;-71
2024/01/05 06:23:31;;;;;;;1.50;0.55;;;9.80;99.90;;;;;;5020792;28;20048;-72
2024/01/05 06:25:57;;;;;;;2.35;0.50;;;9.80;99.90;;;;;;5042047;28;20452;-71
2024/01/05 06:28:23;;;;;;;2.05;0.60;;;9.80;99.90;;;;;;5039860;28;20022;-71
2024/01/05 06:30:48;;;;;;;2.33;0.30;;;9.70;99.90;;;;;;5038986;28;20113;-73
2024/01/05 06:33:14;;;;;;;2.17;0.50;;;9.70;99.90;;;;;;5033757;28;20513;-71
2024/01/05 06:35:40;;;;;;;4.85;0.40;;;9.60;99.90;;;;;;5038325;28;20025;-72
2024/01/05 06:38:05;;;;;;;2.28;0.50;;;9.70;99.90;;;;;;5036230;28;20025;-80
2024/01/05 06:40:31;;;;;;;0.75;0.20;;;9.60;99.90;;;;;;5039496;28;20034;-71
2024/01/05 06:42:57;;;;;;;3.20;0.43;;;9.60;99.90;;;;;;5036247;28;20147;-71
2024/01/05 06:45:23;;;;;;;0.50;0.20;;;9.60;99.90;;;;;;5036253;28;20025;-72
2024/01/05 06:47:49;;;;;;;1.83;0.22;;;9.60;99.90;;;;;;5032946;28;20075;-72
2024/01/05 06:50:15;;;;;;;1.33;0.20;;;9.50;99.90;;;;;;5037563;28;20056;-71
2024/01/05 06:52:41;;;;;;;0.60;0.30;;;9.50;99.90;;;;;;5034505;28;20038;-72
2024/01/05 06:55:07;;;;;;;0.60;0.30;;;9.60;99.90;;;;;;5040138;28;20466;-72
2024/01/05 06:57:35;;;;;;;1.20;0.40;;;9.60;99.90;;;;;;5032307;28;20035;-72
2024/01/05 07:00:11;;;;;;;2.60;0.30;;;9.60;99.90;;;;;;5039096;28;20025;-71
2024/01/05 07:02:37;;;;;;;1.48;0.10;;;9.50;99.90;;;;;;5035185;28;20053;-72
2024/01/05 07:05:04;;;;;;;1.55;0.40;;;9.50;99.90;;;;;;5033318;28;20014;-71
2024/01/05 07:07:30;;;;;;;0.17;0.17;;;9.40;99.90;;;;;;5035045;28;20035;-72
2024/01/05 07:09:56;;;;;;;3.42;0.30;;;9.50;99.90;;;;;;5036928;28;20068;-76
2024/01/05 07:12:22;;;;;;;0.50;0.30;;;9.30;99.90;;;;;;5033975;28;20141;-74
2024/01/05 07:14:48;;;;;;;1.45;0.32;;;9.50;99.90;;;;;;5034958;28;20078;-75
2024/01/05 07:17:14;;;;;;;0.65;0.30;;;9.50;99.90;;;;;;5036685;28;20460;-74
2024/01/05 07:19:40;;;;;;;0.88;0.32;;;9.50;99.90;;;;;;5037256;28;20056;-74
2024/01/05 07:22:07;;;;;;;0.47;0.30;;;9.50;99.90;;;;;;5030728;28;20414;-73
2024/01/05 07:24:37;;;;;;;1.10;0.40;;;9.30;99.90;;;;;;5034181;28;20025;-74
2024/01/05 07:27:04;;;;;;;1.92;0.25;;;9.40;99.90;;;;;;5032291;28;20026;-74
2024/01/05 07:29:29;;;;;;;1.02;0.55;;;9.30;99.90;;;;;;5035445;28;20022;-73
2024/01/05 07:31:55;;;;;;;1.00;0.60;;;9.30;99.90;;;;;;5036290;28;20498;-73
2024/01/05 07:34:21;;;;;;;2.92;0.43;;;9.20;99.90;;;;;;5032525;28;20036;-74
2024/01/05 07:36:47;;;;;;;3.58;0.30;;;9.30;99.90;;;;;;5036156;28;20387;-74
2024/01/05 07:39:13;;;;;;;1.58;0.40;;;9.30;99.90;;;;;;5037289;28;20090;-74
2024/01/05 07:41:39;;;;;;;2.80;0.30;;;9.30;99.90;;;;;;5037680;28;20035;-74
2024/01/05 07:44:05;;;;;;;2.00;0.30;;;9.30;99.90;;;;;;5034750;28;20051;-74
2024/01/05 07:46:32;;;;;;;0.35;0.22;;;9.30;99.90;;;;;;5030403;28;20033;-74
2024/01/05 07:48:57;;;;;;;0.30;0.30;;;9.30;99.90;;;;;;5030181;28;20426;-74
2024/01/05 07:51:24;;;;;;;1.27;0.50;;;9.30;99.90;;;;;;5035014;28;20113;-74
2024/01/05 07:53:50;;;;;;;2.83;0.40;;;9.30;99.90;;;;;;5036877;28;20025;-74
2024/01/05 07:56:19;;;;;;;2.55;0.35;;;9.30;99.90;;;;;;5035647;28;20067;-74
2024/01/05 07:58:45;;;;;;;0.50;0.35;;;9.10;99.90;;;;;;5032287;28;20052;-75
2024/01/05 08:01:18;;;;;;;1.23;0.50;;;9.10;99.90;;;;;;5031950;28;20074;-76
2024/01/05 08:03:47;;;;;;;3.45;0.50;;;9.00;99.90;;;;;;5035659;28;20099;-74
2024/01/05 08:06:17;;;;;;;0.80;0.30;;;9.10;99.90;;;;;;5039147;28;20109;-75
2024/01/05 08:08:47;;;;;;;2.50;0.32;;;9.10;99.90;;;;;;5033116;28;20029;-75
2024/01/05 08:11:14;;;;;;;3.00;0.70;;;9.10;99.90;;;;;;5034544;28;20044;-75
2024/01/05 08:13:43;;;;;;;1.45;1.30;;;9.00;99.90;;;;;;5032591;28;20091;-75
2024/01/05 08:16:10;;;;;;;0.65;0.30;;;9.10;99.90;;;;;;5036963;28;20186;-76
2024/01/05 08:18:36;;;;;;;1.88;0.50;;;9.20;99.90;;;;;;5032689;28;20482;-76
2024/01/05 08:21:02;;;;;;;1.00;0.43;;;9.10;99.90;;;;;;5036904;28;20104;-76
2024/01/05 08:23:32;;;;;;;1.65;0.30;;;9.10;99.90;;;;;;5034970;28;20025;-76
2024/01/05 08:25:59;;;;;;;3.35;0.30;;;9.10;99.90;;;;;;5037970;28;20103;-77
2024/01/05 08:28:26;;;;;;;3.35;0.50;;;9.10;99.90;;;;;;5036651;28;20072;-76
2024/01/05 08:30:52;;;;;;;3.40;0.40;;;9.00;99.90;;;;;;5030168;28;20029;-76
2024/01/05 08:33:18;;;;;;;3.17;0.40;;;9.00;99.90;;;;;;5029952;28;20074;-75
2024/01/05 08:35:44;;;;;;;1.85;0.38;;;9.00;99.90;;;;;;5034229;28;20017;-75
2024/01/05 08:38:10;;;;;;;0.85;0.20;;;9.00;99.90;;;;;;5036051;28;20029;-76
2024/01/05 08:40:35;;;;;;;2.38;0.50;;;9.00;99.90;;;;;;5033884;28;20029;-75
2024/01/05 08:43:02;;;;;;;1.55;0.50;;;9.00;99.90;;;;;;5033799;28;20557;-75
2024/01/05 08:45:29;;;;;;;0.80;0.40;;;9.00;99.90;;;;;;5038896;28;20482;-77
2024/01/05 08:47:55;;;;;;;2.10;0.40;;;8.80;99.90;;;;;;5035213;28;20048;-73
2024/01/05 08:50:21;;;;;;;1.23;0.40;;;8.90;99.90;;;;;;5032414;28;20068;-75
2024/01/05 08:52:46;;;;;;;1.00;0.40;;;8.90;99.90;;;;;;5038384;28;20037;-75
2024/01/05 08:55:17;;;;;;;4.53;0.60;;;8.90;99.90;;;;;;5040286;28;20413;-75
2024/01/05 08:57:43;;;;;;;1.00;0.40;;;8.80;99.90;;;;;;5036824;28;20573;-75
2024/01/05 09:00:09;;;;;;;2.22;0.60;;;8.80;99.90;;;;;;5034690;28;20029;-76
2024/01/05 09:02:36;;;;;;;1.90;0.35;;;8.80;99.90;;;;;;5036960;28;20044;-76
2024/01/05 09:05:06;;;;;;;0.70;0.50;;;8.80;99.90;;;;;;5031635;28;20108;-76
2024/01/05 09:07:34;;;;;;;1.17;0.80;;;8.80;99.90;;;;;;5035142;28;20035;-76
2024/01/05 09:10:01;;;;;;;2.92;0.60;;;8.80;99.90;;;;;;5040960;28;20029;-76
2024/01/05 09:12:27;;;;;;;4.95;0.82;;;8.80;99.90;;;;;;5040489;28;20486;-77
2024/01/05 09:14:53;;;;;;;4.07;0.70;;;8.70;99.90;;;;;;5034591;28;20025;-76
2024/01/05 09:17:19;;;;;;;1.08;0.57;;;8.80;99.90;;;;;;5040643;28;20017;-76
2024/01/05 09:19:45;;;;;;;2.25;0.63;;;8.90;99.90;;;;;;5035456;28;20022;-76
2024/01/05 09:22:11;;;;;;;7.60;0.88;;;8.70;99.90;;;;;;5038658;28;20040;-75
2024/01/05 09:24:37;;;;;;;2.95;0.85;;;8.80;99.90;;;;;;5044367;28;20086;-75
2024/01/05 09:27:04;;;;;;;2.05;0.88;;;8.80;99.90;;;;;;5039234;28;20478;-75
2024/01/05 09:29:31;;;;;;;4.65;1.23;;;8.90;99.90;;;;;;5042018;28;20037;-76
2024/01/05 09:31:57;;;;;;;6.38;0.80;;;8.90;99.90;;;;;;5035509;28;20470;-75
2024/01/05 09:34:23;;;;;;;6.53;1.05;;;8.80;99.90;;;;;;5043160;28;20094;-75
2024/01/05 09:36:50;;;;;;;2.92;1.05;;;8.80;99.90;;;;;;5037076;28;20017;-76
2024/01/05 09:39:15;;;;;;;3.08;0.75;;;8.90;99.90;;;;;;5037356;28;20028;-76
2024/01/05 09:41:42;;;;;;;3.72;0.80;;;8.80;99.90;;;;;;5012805;28;20543;-75
2024/01/05 09:44:11;;;;;;;4.05;0.90;;;8.80;99.90;;;;;;5026866;28;20048;-76
2024/01/05 09:46:39;;;;;;;2.08;0.70;;;8.70;99.90;;;;;;5037786;28;20053;-76
2024/01/05 09:49:06;;;;;;;6.10;1.00;;;8.80;99.90;;;;;;5039422;28;20027;-75
2024/01/05 09:51:32;;;;;;;3.03;0.70;;;8.80;99.90;;;;;;5038798;28;20029;-75
2024/01/05 09:53:58;;;;;;;3.30;1.00;;;8.90;99.90;;;;;;5037597;28;20067;-76
2024/01/05 09:56:28;;;;;;;5.72;1.15;;;8.90;99.90;;;;;;5035301;28;20108;-76
2024/01/05 09:58:55;;;;;;;3.03;0.90;;;8.80;99.90;;;;;;5035574;28;20021;-75
2024/01/05 10:01:30;;;;;;;4.47;0.75;;;8.90;99.90;;;;;;5041198;28;20061;-73
2024/01/05 10:03:58;;;;;;;3.20;1.20;;;8.80;99.90;;;;;;5038022;28;20083;-76
2024/01/05 10:06:25;;;;;;;7.63;4.60;;;8.80;99.90;;;;;;5036281;28;20033;-72
2024/01/05 10:08:55;;;;;;;4.35;1.73;;;8.80;99.90;;;;;;5036501;28;20021;-72
2024/01/05 10:11:32;;;;;;;5.05;1.02;;;8.90;99.90;;;;;;5036041;28;20105;-75
2024/01/05 10:14:03;;;;;;;5.18;0.95;;;8.90;99.90;;;;;;5036662;28;20682;-76
2024/01/05 10:16:39;;;;;;;5.10;1.10;;;9.00;99.90;;;;;;5036371;28;20132;-75
2024/01/05 10:19:19;;;;;;;8.63;1.20;;;9.00;99.90;;;;;;5041191;28;20068;-76
2024/01/05 10:21:47;;;;;;;6.25;1.10;;;8.90;99.90;;;;;;5034439;28;20033;-75
2024/01/05 10:24:29;;;;;;;3.20;0.80;;;9.00;99.90;;;;;;5039403;28;20018;-76
2024/01/05 10:27:05;;;;;;;3.80;1.10;;;8.90;99.90;;;;;;5037750;28;20025;-75
2024/01/05 10:29:38;;;;;;;1.63;0.73;;;9.00;99.90;;;;;;5039261;28;20501;-73
2024/01/05 10:32:25;;;;;;;1.83;0.95;;;9.00;99.90;;;;;;5036026;28;20029;-73
2024/01/05 10:34:51;;;;;;;4.13;1.17;;;8.90;99.90;;;;;;5040027;28;20022;-73
2024/01/05 10:37:19;;;;;;;4.80;2.00;;;8.90;99.90;;;;;;5036131;28;20066;-73
2024/01/05 10:39:54;;;;;;;4.75;1.00;;;8.90;99.90;;;;;;5038624;28;20025;-73
2024/01/05 10:42:27;;;;;;;4.70;1.02;;;9.00;99.90;;;;;;5034507;28;20138;-72
2024/01/05 10:44:57;;;;;;;4.13;1.25;;;8.90;99.90;;;;;;5038584;28;20052;-75
2024/01/05 10:47:30;;;;;;;4.60;1.48;;;8.90;99.90;;;;;;5035252;28;20033;-73
2024/01/05 10:49:56;;;;;;;6.85;1.73;;;9.00;99.90;;;;;;5038386;28;20074;-73
2024/01/05 10:52:24;;;;;;;7.45;1.98;;;8.90;99.90;;;;;;5033817;28;20045;-73
2024/01/05 10:54:52;;;;;;;3.38;1.52;;;8.90;99.90;;;;;;5037661;28;20364;-73
2024/01/05 10:57:19;;;;;;;5.93;1.65;;;9.00;99.90;;;;;;5035370;28;20025;-72
2024/01/05 10:59:53;;;;;;;5.22;1.50;;;9.00;99.90;;;;;;5037016;28;20014;-72
2024/01/05 11:02:24;;;;;;;1.95;1.25;;;9.00;99.90;;;;;;5038321;28;20043;-73
2024/01/05 11:05:11;;;;;;;3.13;1.20;;;8.90;99.90;;;;;;5035963;28;20045;-73
2024/01/05 11:07:38;;;;;;;7.90;2.63;;;9.00;99.90;;;;;;5032134;28;20039;-73
2024/01/05 11:10:25;;;;;;;3.33;1.42;;;8.90;99.90;;;;;;5038505;28;20009;-73
2024/01/05 11:13:14;;;;;;;6.25;2.35;;;8.90;99.90;;;;;;5034300;28;20080;-73
2024/01/05 11:16:04;;;;;;;6.75;2.15;;;8.90;99.90;;;;;;5031638;28;20029;-72
2024/01/05 11:18:59;;;;;;;4.05;1.33;;;9.00;99.90;;;;;;5032130;28;20028;-73
2024/01/05 11:22:10;;;;;;;5.35;1.58;;;9.00;99.90;;;;;;5036029;28;20037;-73
2024/01/05 11:24:38;;;;;;;5.55;1.70;;;8.90;99.90;;;;;;5020322;28;20064;-73
2024/01/05 11:27:36;;;;;;;4.15;1.30;;;8.90;99.90;;;;;;5036633;28;20116;-73
2024/01/05 11:30:02;;;;;;;2.47;1.33;;;8.80;99.90;;;;;;5025547;28;20062;-72
2024/01/05 11:32:47;;;;;;;6.28;1.58;;;8.80;99.90;;;;;;5036727;28;20576;-72
2024/01/05 11:35:16;;;;;;;5.95;1.70;;;8.70;99.90;;;;;;5035656;28;20065;-74
2024/01/05 11:37:43;;;;;;;6.57;1.88;;;8.80;99.90;;;;;;5036570;28;20694;-73
2024/01/05 11:40:25;;;;;;;4.82;1.50;;;8.80;99.90;;;;;;5033529;28;20028;-73
2024/01/05 11:42:52;;;;;;;5.53;1.45;;;9.00;99.90;;;;;;5033448;28;20124;-73
2024/01/05 11:45:50;;;;;;;4.78;1.45;;;9.00;99.90;;;;;;5033421;28;20512;-73
2024/01/05 11:48:39;;;;;;;3.88;1.67;;;8.80;99.90;;;;;;5039686;28;20095;-73
2024/01/05 11:51:08;;;;;;;4.88;1.42;;;8.90;99.90;;;;;;5029861;28;20041;-73
2024/01/05 11:53:34;;;;;;;5.43;1.55;;;8.90;99.90;;;;;;5031478;28;20032;-73
2024/01/05 11:56:07;;;;;;;6.75;1.65;;;8.90;99.90;;;;;;5033197;28;20029;-73
2024/01/05 11:58:38;;;;;;;4.95;1.17;;;9.00;99.90;;;;;;5034751;28;20426;-72
2024/01/05 12:01:12;;;;;;;6.43;1.30;;;8.90;99.90;;;;;;5033827;28;20022;-73
2024/01/05 12:03:38;;;;;;;5.53;1.63;;;8.90;99.90;;;;;;5032980;28;20087;-72
2024/01/05 12:06:06;;;;;;;5.32;1.30;;;9.00;99.90;;;;;;5033989;28;20108;-72
2024/01/05 12:08:32;;;;;;;4.07;1.38;;;8.90;99.90;;;;;;5033124;28;20045;-72
2024/01/05 12:11:08;;;;;;;5.95;1.83;;;8.90;99.90;;;;;;5035689;28;20509;-72
2024/01/05 12:13:35;;;;;;;2.65;1.85;;;8.90;99.90;;;;;;5036599;28;20477;-73
2024/01/05 12:16:03;;;;;;;3.90;1.45;;;8.90;99.90;;;;;;5034355;28;20029;-72
2024/01/05 12:18:32;;;;;;;3.17;1.60;;;8.90;99.90;;;;;;5032141;28;20029;-72
2024/01/05 12:21:02;;;;;;;3.05;1.52;;;9.00;99.90;;;;;;5038289;28;20028;-73
2024/01/05 12:23:32;;;;;;;4.47;1.88;;;9.00;99.90;;;;;;5033907;28;20082;-72
2024/01/05 12:26:03;;;;;;;4.78;1.88;;;9.00;99.90;;;;;;5035081;28;20195;-72
2024/01/05 12:28:31;;;;;;;4.22;1.63;;;9.00;99.90;;;;;;5039982;28;20037;-72
2024/01/05 12:30:58;;;;;;;9.13;2.40;;;9.10;99.90;;;;;;5036952;28;20017;-72
2024/01/05 12:33:26;;;;;;;8.13;1.83;;;9.00;99.90;;;;;;5032201;28;20448;-72
2024/01/05 12:35:52;;;;;;;3.63;1.98;;;9.00;99.90;;;;;;5035268;28;20067;-72
2024/01/05 12:38:31;;;;;;;7.18;2.00;;;9.00;99.90;;;;;;5037539;28;20029;-72
2024/01/05 12:41:18;;;;;;;6.20;2.17;;;9.00;99.90;;;;;;5037103;28;20043;-72
2024/01/05 12:43:51;;;;;;;5.15;2.28;;;8.90;99.90;;;;;;5034366;28;20967;-72
2024/01/05 12:46:22;;;;;;;5.68;2.63;;;9.00;99.90;;;;;;5038023;28;20531;-72
2024/01/05 12:48:48;;;;;;;6.00;2.03;;;8.90;99.90;;;;;;5039697;28;20024;-72
2024/01/05 12:51:22;;;;;;;7.53;2.65;;;8.90;99.90;;;;;;5041401;28;20737;-72
2024/01/05 12:54:02;;;;;;;4.00;2.72;;;9.00;99.90;;;;;;5040348;28;20052;-72
2024/01/05 12:56:28;;;;;;;5.72;2.95;;;9.00;99.90;;;;;;5040617;28;20423;-72